Stanley Park — 2AOT5 — position and weather

sailwx.info

Track history (hours):
 
Tides and Currents Weather Stations Pressure Air Temp Water Temp Dewpoint Dewpoint Depression Visibility Wind Speed Wind Dir Waves Ship Positions

Stanley Park

Last reported at 2018-Jul-09 01:57 UTC. Time now 2018-Jul-23 06:14 UTC.
Position N 01°27' E 103°11'.
Warning: this ship's position is 14 days out of date.

Length 145 m; draft 9.6 m.

Type: Ship (hazmat cat B). MMSI: 235061675.

Date/timePositionNaut miles runAvg speedWind from/ knotsBaromVisibWave heightAir tempDewpointWater temp
2018-Jul-09 01:57N 01°27' E 103°11'815.2
2018-Jul-09 01:27N 01°22' E 103°17'714.9
2018-Jul-09 00:59N 01°18' E 103°22'714.4
2018-Jul-09 00:30N 01°14' E 103°28'713.9
2018-Jul-08 23:59N 01°12' E 103°35'611.8
2018-Jul-08 23:30N 01°11' E 103°41'2 4.6
2018-Jul-08 22:59N 01°10' E 103°43'0 0.0
2018-Jul-08 22:23N 01°10' E 103°43'0 0.1
2018-Jul-08 21:46N 01°10' E 103°43'0 0.0
2018-Jul-08 21:29N 01°10' E 103°43'0 0.0
2018-Jul-08 20:59N 01°10' E 103°43'0 0.0
2018-Jul-08 20:23N 01°10' E 103°43'0 0.0
2018-Jul-08 19:56N 01°10' E 103°43'0 0.0
2018-Jul-08 19:26N 01°10' E 103°43'0 0.0
2018-Jul-08 18:56N 01°10' E 103°43'0 0.0
2018-Jul-08 18:29N 01°10' E 103°43'0 0.0
2018-Jul-08 17:59N 01°10' E 103°43'0 0.0
2018-Jul-08 17:23N 01°10' E 103°43'0 0.1
2018-Jul-08 16:56N 01°10' E 103°43'0 0.0
2018-Jul-08 16:23N 01°10' E 103°43'0 0.0
2018-Jul-08 15:59N 01°10' E 103°43'0 0.0
2018-Jul-08 15:29N 01°10' E 103°43'0 0.0
2018-Jul-08 14:56N 01°10' E 103°43'0 0.0
2018-Jul-08 14:22N 01°10' E 103°43'0 0.0
2018-Jul-08 13:50N 01°10' E 103°43'0 0.0
2018-Jul-08 13:26N 01°10' E 103°43'0 0.0
2018-Jul-08 12:56N 01°10' E 103°43'0 0.0
2018-Jul-08 12:29N 01°10' E 103°43'0 0.1
2018-Jul-08 11:53N 01°10' E 103°43'0 0.5
2018-Jul-08 11:31N 01°10' E 103°43'3 5.0
2018-Jul-08 11:00N 01°10' E 103°45'3 6.4
2018-Jul-08 10:30N 01°11' E 103°48'611.8
2018-Jul-08 09:58N 01°14' E 103°54'613.6
2018-Jul-08 09:30N 01°15' E 104°00'713.8
2018-Jul-08 08:59N 01°17' E 104°07'510.6
2018-Jul-08 08:30N 01°14' E 104°12'712.1
2018-Jul-08 07:56N 01°07' E 104°12'1 1.4
2018-Jul-08 07:16N 01°06' E 104°11'0 0.0
2018-Jul-08 06:43N 01°06' E 104°11'0 0.1
2018-Jul-08 06:19N 01°06' E 104°11'0 0.0
2018-Jul-08 05:37N 01°06' E 104°11'0 0.0
2018-Jul-08 05:28N 01°06' E 104°11'0 0.0
2018-Jul-08 04:59N 01°06' E 104°11'2 3.0
2018-Jul-08 04:27N 01°06' E 104°10'2 4.7
2018-Jul-08 03:59N 01°04' E 104°08'0 0.0
2018-Jul-08 01:49N 01°04' E 104°08'0 0.0
2018-Jul-08 01:25N 01°04' E 104°08'0 0.0
2018-Jul-07 19:07N 01°04' E 104°08'0 0.0
2018-Jul-07 18:58N 01°04' E 104°08'0 0.0
2018-Jul-07 18:01N 01°04' E 104°08'0 0.0
2018-Jul-07 03:52N 01°04' E 104°08'0 0.0
2018-Jul-07 01:37N 01°04' E 104°08'0 0.0
2018-Jul-07 01:10N 01°04' E 104°08'0 0.0
2018-Jul-07 00:43N 01°04' E 104°08'0 0.0
2018-Jul-06 22:52N 01°04' E 104°08'0 0.0
2018-Jul-06 22:10N 01°04' E 104°08'0 0.0
2018-Jul-06 21:52N 01°04' E 104°08'0 0.0
2018-Jul-06 19:58N 01°04' E 104°08'0 0.0
2018-Jul-06 19:22N 01°04' E 104°08'0 0.0
2018-Jul-06 18:55N 01°04' E 104°08'0 0.0
2018-Jul-06 18:26N 01°04' E 104°08'1 2.4
2018-Jul-06 18:00N 01°05' E 104°09'2 1.3
2018-Jul-06 16:19N 01°07' E 104°10'0 0.0
2018-Jul-06 15:40N 01°07' E 104°10'0 0.0
2018-Jul-06 13:43N 01°07' E 104°10'0 0.0
2018-Jul-06 13:25N 01°07' E 104°10'0 0.1
2018-Jul-06 12:55N 01°07' E 104°10'0 0.1
2018-Jul-06 11:58N 01°07' E 104°10'0 0.1
2018-Jul-06 11:24N 01°07' E 104°10'0 0.0
2018-Jul-06 10:49N 01°07' E 104°10'0 0.0
2018-Jul-06 10:25N 01°07' E 104°10'0 0.0
2018-Jul-06 09:55N 01°07' E 104°10'0 0.0
2018-Jul-06 08:19N 01°07' E 104°10'0 0.0
2018-Jul-06 07:54N 01°07' E 104°10'0 0.0
2018-Jul-06 07:31N 01°07' E 104°10'0 0.1
2018-Jul-06 05:37N 01°07' E 104°10'0 0.1
2018-Jul-06 04:36N 01°07' E 104°10'0 0.0
2018-Jul-06 03:15N 01°07' E 104°10'0 0.0
2018-Jul-06 02:58N 01°07' E 104°10'2 3.6
2018-Jul-06 02:29N 01°08' E 104°12'510.3
2018-Jul-06 01:59N 01°13' E 104°11'713.8
2018-Jul-06 01:30N 01°14' E 104°04'815.5
2018-Jul-06 01:00N 01°13' E 103°56'917.1
2018-Jul-06 00:30N 01°10' E 103°48'816.6
2018-Jul-05 23:59N 01°04' E 103°42'612.8
2018-Jul-05 23:30N 01°04' E 103°36'814.3
2018-Jul-05 22:58N 01°08' E 103°29'714.6
2018-Jul-05 22:29N 01°12' E 103°23'  
Track history (hours):
 
Tides and Currents Weather Stations Pressure Air Temp Water Temp Dewpoint Dewpoint Depression Visibility Wind Speed Wind Dir Waves Ship Positions

Stanley Park

Last reported at 2018-Jul-09 01:57 UTC. Time now 2018-Jul-23 06:14 UTC.
Position N 01°27' E 103°11'.
Warning: this ship's position is 14 days out of date.

Length 145 m; draft 9.6 m.

Type: Ship (hazmat cat B). MMSI: 235061675.

Date/timePositionNaut miles runAvg speedWind from/ knotsBaromVisibWave heightAir tempDewpointWater temp
2018-Jul-09 01:57N 01°27' E 103°11'815.2
2018-Jul-09 01:27N 01°22' E 103°17'714.9
2018-Jul-09 00:59N 01°18' E 103°22'714.4
2018-Jul-09 00:30N 01°14' E 103°28'713.9
2018-Jul-08 23:59N 01°12' E 103°35'611.8
2018-Jul-08 23:30N 01°11' E 103°41'2 4.6
2018-Jul-08 22:59N 01°10' E 103°43'0 0.0
2018-Jul-08 22:23N 01°10' E 103°43'0 0.1
2018-Jul-08 21:46N 01°10' E 103°43'0 0.0
2018-Jul-08 21:29N 01°10' E 103°43'0 0.0
2018-Jul-08 20:59N 01°10' E 103°43'0 0.0
2018-Jul-08 20:23N 01°10' E 103°43'0 0.0
2018-Jul-08 19:56N 01°10' E 103°43'0 0.0
2018-Jul-08 19:26N 01°10' E 103°43'0 0.0
2018-Jul-08 18:56N 01°10' E 103°43'0 0.0
2018-Jul-08 18:29N 01°10' E 103°43'0 0.0
2018-Jul-08 17:59N 01°10' E 103°43'0 0.0
2018-Jul-08 17:23N 01°10' E 103°43'0 0.1
2018-Jul-08 16:56N 01°10' E 103°43'0 0.0
2018-Jul-08 16:23N 01°10' E 103°43'0 0.0
2018-Jul-08 15:59N 01°10' E 103°43'0 0.0
2018-Jul-08 15:29N 01°10' E 103°43'0 0.0
2018-Jul-08 14:56N 01°10' E 103°43'0 0.0
2018-Jul-08 14:22N 01°10' E 103°43'0 0.0
2018-Jul-08 13:50N 01°10' E 103°43'0 0.0
2018-Jul-08 13:26N 01°10' E 103°43'0 0.0
2018-Jul-08 12:56N 01°10' E 103°43'0 0.0
2018-Jul-08 12:29N 01°10' E 103°43'0 0.1
2018-Jul-08 11:53N 01°10' E 103°43'0 0.5
2018-Jul-08 11:31N 01°10' E 103°43'3 5.0
2018-Jul-08 11:00N 01°10' E 103°45'3 6.4
2018-Jul-08 10:30N 01°11' E 103°48'611.8
2018-Jul-08 09:58N 01°14' E 103°54'613.6
2018-Jul-08 09:30N 01°15' E 104°00'713.8
2018-Jul-08 08:59N 01°17' E 104°07'510.6
2018-Jul-08 08:30N 01°14' E 104°12'712.1
2018-Jul-08 07:56N 01°07' E 104°12'1 1.4
2018-Jul-08 07:16N 01°06' E 104°11'0 0.0
2018-Jul-08 06:43N 01°06' E 104°11'0 0.1
2018-Jul-08 06:19N 01°06' E 104°11'0 0.0
2018-Jul-08 05:37N 01°06' E 104°11'0 0.0
2018-Jul-08 05:28N 01°06' E 104°11'0 0.0
2018-Jul-08 04:59N 01°06' E 104°11'2 3.0
2018-Jul-08 04:27N 01°06' E 104°10'2 4.7
2018-Jul-08 03:59N 01°04' E 104°08'0 0.0
2018-Jul-08 01:49N 01°04' E 104°08'0 0.0
2018-Jul-08 01:25N 01°04' E 104°08'0 0.0
2018-Jul-07 19:07N 01°04' E 104°08'0 0.0
2018-Jul-07 18:58N 01°04' E 104°08'0 0.0
2018-Jul-07 18:01N 01°04' E 104°08'0 0.0
2018-Jul-07 03:52N 01°04' E 104°08'0 0.0
2018-Jul-07 01:37N 01°04' E 104°08'0 0.0
2018-Jul-07 01:10N 01°04' E 104°08'0 0.0
2018-Jul-07 00:43N 01°04' E 104°08'0 0.0
2018-Jul-06 22:52N 01°04' E 104°08'0 0.0
2018-Jul-06 22:10N 01°04' E 104°08'0 0.0
2018-Jul-06 21:52N 01°04' E 104°08'0 0.0
2018-Jul-06 19:58N 01°04' E 104°08'0 0.0
2018-Jul-06 19:22N 01°04' E 104°08'0 0.0
2018-Jul-06 18:55N 01°04' E 104°08'0 0.0
2018-Jul-06 18:26N 01°04' E 104°08'1 2.4
2018-Jul-06 18:00N 01°05' E 104°09'2 1.3
2018-Jul-06 16:19N 01°07' E 104°10'0 0.0
2018-Jul-06 15:40N 01°07' E 104°10'0 0.0
2018-Jul-06 13:43N 01°07' E 104°10'0 0.0
2018-Jul-06 13:25N 01°07' E 104°10'0 0.1
2018-Jul-06 12:55N 01°07' E 104°10'0 0.1
2018-Jul-06 11:58N 01°07' E 104°10'0 0.1
2018-Jul-06 11:24N 01°07' E 104°10'0 0.0
2018-Jul-06 10:49N 01°07' E 104°10'0 0.0
2018-Jul-06 10:25N 01°07' E 104°10'0 0.0
2018-Jul-06 09:55N 01°07' E 104°10'0 0.0
2018-Jul-06 08:19N 01°07' E 104°10'0 0.0
2018-Jul-06 07:54N 01°07' E 104°10'0 0.0
2018-Jul-06 07:31N 01°07' E 104°10'0 0.1
2018-Jul-06 05:37N 01°07' E 104°10'0 0.1
2018-Jul-06 04:36N 01°07' E 104°10'0 0.0
2018-Jul-06 03:15N 01°07' E 104°10'0 0.0
2018-Jul-06 02:58N 01°07' E 104°10'2 3.6
2018-Jul-06 02:29N 01°08' E 104°12'510.3
2018-Jul-06 01:59N 01°13' E 104°11'713.8
2018-Jul-06 01:30N 01°14' E 104°04'815.5
2018-Jul-06 01:00N 01°13' E 103°56'917.1
2018-Jul-06 00:30N 01°10' E 103°48'816.6
2018-Jul-05 23:59N 01°04' E 103°42'612.8
2018-Jul-05 23:30N 01°04' E 103°36'814.3
2018-Jul-05 22:58N 01°08' E 103°29'714.6
2018-Jul-05 22:29N 01°12' E 103°23'  

Dump ship's entire track history